Latest Coastal Weather Observations for Christmas Island

IDW60701

Issued at 5:25 am WST Wednesday 17 September 2014 (issued every 10 minutes, with the page automatically refreshed every 10 minutes)

About coastal observations | Map of coastal stations | Coastal observations for WA | Marine services | Other Formats
Station Details ID: 200790 Name: CHRISTMAS ISLAND AERO Lat: -10.45 Lon: 105.69 Height: 261.0 m
Data from the previous 72 hours. | See also: Recent months at Christmas Island
Date/Time
WST
Temp

°C
Wind Pressure Rain
since 9am
mm
Weather Cloud Vis
km
Sea
Height
m
Swell
Dir
 
Speed
knots
Gust
knots
hPa Trend Height
m
Period
s
Dir
17/05:00am 22.8 SE 13 18 1012.9 - 0.0 - Partly cloudy 10 - - - -
17/04:00am 23.0 ESE 13 19 1011.3 - 0.0 - Cloudy 10 - - - -
17/03:00am 22.9 SE 14 20 1012.7 - 0.0 - Partly cloudy 10 - - - -
17/02:00am 23.1 SE 13 20 1013.0 - 0.0 - Partly cloudy 10 - - - -
17/01:10am 23.1 SE 15 25 1013.2 - 0.0 - Partly cloudy 10 - - - -
17/01:00am 22.9 SE 13 22 1011.9 - 0.0 - Cloudy 10 - - - -
17/12:00am 23.3 ESE 13 20 1013.9 - 0.0 - Partly cloudy 10 - - - -
 
Date/Time
WST
Temp

°C
Wind Pressure Rain
since 9am
mm
Weather Cloud Vis
km
Sea
Height
m
Swell
Dir
 
Speed
knots
Gust
knots
hPa Trend Height
m
Period
s
Dir
16/11:00pm 23.4 SE 15 23 1014.1 - 0.0 - Partly cloudy 10 - - - -
16/10:00pm 23.4 ESE 15 23 1012.8 - 0.0 - Cloudy 10 - - - -
16/09:00pm 23.4 ESE 14 20 1013.7 - 0.0 - Partly cloudy 10 - - - -
16/08:00pm 23.6 SE 14 22 1013.2 - 0.0 - Partly cloudy 10 - - - -
16/07:00pm 23.7 ESE 13 17 1010.7 - 0.0 - Cloudy 10 - - - -
16/06:00pm 24.1 ESE 15 21 1011.6 - 0.0 - Partly cloudy 10 - - - -
16/05:00pm 24.7 ESE 15 19 1011.2 - 0.0 - Partly cloudy 10 - - - -
16/04:00pm 25.5 ESE 14 19 1009.8 - 0.0 - Cloudy 10 - - - -
16/03:00pm 25.9 ESE 15 21 1011.9 - 0.0 - Partly cloudy 10 - - - -
16/02:00pm 26.1 ESE 16 21 1012.5 - 0.0 - Partly cloudy 10 - - - -
16/01:00pm 25.6 ESE 16 22 1012.2 - 0.0 - Cloudy 10 - - - -
16/12:00pm 25.5 ESE 15 23 1014.2 - 0.0 - Partly cloudy 10 - - - -
16/11:00am 26.3 ESE 15 21 1015.0 - 0.0 - Partly cloudy 10 - - - -
16/10:00am 24.7 ESE 15 22 1013.8 - 0.0 - Cloudy 10 - - - -
16/09:00am 24.9 ESE 13 21 1014.9 - 0.0 - Partly cloudy 10 - - - -
16/08:00am 23.7 ESE 14 20 1014.4 - 0.0 - Partly cloudy 10 - - - -
16/07:00am 22.9 ESE 15 21 1012.7 - 0.0 - Cloudy 10 - - - -
16/06:00am 23.0 ESE 13 19 1013.7 - 0.0 - Partly cloudy 10 - - - -
16/05:00am 23.0 ESE 14 21 1013.4 - 0.0 - Partly cloudy 10 - - - -
16/04:00am 22.9 SE 14 20 1012.0 - 0.0 - Cloudy 10 - - - -
16/03:00am 22.9 SE 13 19 1013.8 - 0.0 - Partly cloudy 10 - - - -
16/02:37am 23.0 SE 13 19 1013.9 - 0.0 - Partly cloudy 10 - - - -
16/02:26am 22.9 SE 13 17 1014.0 - 0.0 - Partly cloudy 10 - - - -
16/02:16am 23.1 SE 13 19 1014.1 - 0.0 - Partly cloudy 10 - - - -
16/02:05am 23.1 SE 13 17 1014.2 - 0.0 - Partly cloudy 10 - - - -
16/02:00am 23.1 SE 13 18 1014.2 - 0.0 - Partly cloudy 10 - - - -
16/01:59am 23.2 SE 13 18 1014.2 - 0.0 - Partly cloudy 10 - - - -
16/01:02am 23.2 SE 13 20 1014.6 - 0.0 - Partly cloudy 10 - - - -
16/01:00am 23.2 SE 13 19 1013.2 - 0.0 - Cloudy 10 - - - -
16/12:00am 23.1 SE 12 18 1014.8 - 0.0 - Partly cloudy 10 - - - -
 
Date/Time
WST
Temp

°C
Wind Pressure Rain
since 9am
mm
Weather Cloud Vis
km
Sea
Height
m
Swell
Dir
 
Speed
knots
Gust
knots
hPa Trend Height
m
Period
s
Dir
15/11:00pm 22.9 SSE 9 15 1014.5 - 0.0 - Partly cloudy 10 - - - -
15/10:00pm 23.1 SE 13 19 1013.2 - 0.0 - Cloudy 10 - - - -
15/09:00pm 23.3 SE 11 17 1014.5 - 0.0 - Partly cloudy 10 - - - -
15/08:00pm 23.3 SE 10 14 1014.0 - 0.0 - Partly cloudy 10 - - - -
15/07:00pm 23.5 SE 10 14 1012.1 - 0.0 - Cloudy 10 - - - -
15/06:00pm 24.1 ESE 10 15 1013.3 - 0.0 - Partly cloudy 10 - - - -
15/05:00pm 24.9 ESE 12 18 1013.3 - 0.0 - Partly cloudy 10 - - - -
15/04:00pm 24.9 ESE 13 19 1012.0 - 0.0 - Cloudy 10 - - - -
15/03:00pm 25.2 ESE 14 19 1013.6 - 0.0 - Partly cloudy 10 - - - -
15/02:00pm 25.6 ESE 14 20 1014.1 - 0.0 - Partly cloudy 10 - - - -
15/01:00pm 25.6 ESE 15 21 1013.6 - 0.0 - Cloudy 10 - - - -
15/12:00pm 26.2 ESE 15 21 1015.6 - 0.0 - Partly cloudy 10 - - - -
15/11:00am 25.0 ESE 17 22 1016.2 - 0.0 - Partly cloudy 10 - - - -
15/10:30am 24.7 ESE 17 25 1016.5 - 0.0 - Partly cloudy 10 - - - -
15/10:00am 25.6 ESE 15 21 1015.0 - 0.0 - Cloudy 10 - - - -
15/09:39am 24.9 SE 15 22 1016.2 - 0.0 - Partly cloudy 10 - - - -
15/09:06am 24.7 ESE 15 20 1016.3 - 0.0 - Partly cloudy 10 - - - -
15/09:00am 24.7 ESE 15 21 1016.6 - 0.0 - Partly cloudy 10 - - - -
15/08:00am 23.8 SSE 9 13 1015.4 - 0.0 - - 10 - - - -
15/07:29am 23.4 ESE 12 17 1016.1 - 0.0 - Partly cloudy 10 - - - -
15/07:00am 23.0 SE 10 15 1013.8 - 0.0 - Cloudy 10 - - - -
15/06:00am 23.1 SE 11 16 1014.8 - 0.0 - Partly cloudy 10 - - - -
15/05:57am 23.0 SE 11 16 1014.8 - 0.0 - Partly cloudy 10 - - - -
15/05:22am 23.0 SE 12 18 1014.8 - 0.0 - Partly cloudy 10 - - - -
15/05:07am 23.1 SE 13 17 1014.9 - 0.0 - Partly cloudy 10 - - - -
15/05:00am 23.1 SE 13 18 1014.9 - 0.0 - Partly cloudy 10 - - - -
15/04:29am 22.9 SE 13 17 1014.8 - 0.0 - Partly cloudy 10 - - - -
15/04:00am 23.0 SE 12 18 1013.4 - 0.0 - Cloudy 10 - - - -
15/03:00am 23.2 SE 11 16 1014.9 - 0.0 - Partly cloudy 10 - - - -
15/02:24am 23.2 SE 11 16 1015.2 - 0.0 - Partly cloudy 10 - - - -
15/02:00am 23.1 SE 12 17 1015.2 - 0.0 - Partly cloudy 10 - - - -
15/01:41am 23.1 SE 11 16 1015.3 - 0.0 - Partly cloudy 10 - - - -
15/01:00am 23.2 SE 11 17 1014.2 - 0.0 - Cloudy 10 - - - -
15/12:00am 23.1 SE 11 18 1015.7 - 0.0 - Partly cloudy 10 - - - -
 
Date/Time
WST
Temp

°C
Wind Pressure Rain
since 9am
mm
Weather Cloud Vis
km
Sea
Height
m
Swell
Dir
 
Speed
knots
Gust
knots
hPa Trend Height
m
Period
s
Dir
14/11:40pm 23.3 SE 11 16 1015.6 - 0.0 - Partly cloudy 10 - - - -
14/11:00pm 23.3 SE 12 16 1015.6 - 0.0 - Partly cloudy 10 - - - -
14/10:51pm 23.3 SE 13 17 1015.5 - 0.0 - Partly cloudy 10 - - - -
14/10:39pm 23.3 SE 11 17 1015.5 - 0.0 - Partly cloudy 10 - - - -
14/10:01pm 23.3 ESE 12 17 1015.5 - 0.0 - Partly cloudy 10 - - - -
14/10:00pm 23.3 ESE 12 17 1014.1 - 0.0 - Cloudy 10 - - - -
14/09:41pm 23.3 SE 11 16 1015.3 - 0.0 - Partly cloudy 10 - - - -
14/09:34pm 23.3 SE 12 18 1015.3 - 0.0 - Partly cloudy 10 - - - -
14/09:00pm 23.3 SE 12 18 1015.2 - 0.0 - Partly cloudy 10 - - - -
14/08:26pm 23.5 SE 11 17 1014.9 - 0.0 - Partly cloudy 10 - - - -
14/08:00pm 23.4 SE 12 17 1014.6 - 0.0 - Partly cloudy 10 - - - -
14/07:12pm 23.6 ESE 11 16 1014.1 - 0.0 - Partly cloudy 10 - - - -
14/07:05pm 23.6 SE 12 17 1014.1 - 0.0 - Partly cloudy 10 - - - -
14/07:00pm 23.6 SE 12 17 1012.6 - 0.0 - Cloudy 10 - - - -
14/06:39pm 23.8 SE 13 19 1013.6 - 0.0 - Partly cloudy 10 - - - -
14/06:36pm 23.7 SE 13 19 1013.6 - 0.0 - Partly cloudy 10 - - - -
14/06:26pm 23.9 SE 14 20 1013.5 - 0.0 - Partly cloudy 10 - - - -
14/06:25pm 23.8 SE 14 20 1013.6 - 0.0 - Partly cloudy 10 - - - -
14/06:13pm 24.0 SE 12 16 1013.5 - 0.0 - Partly cloudy 10 - - - -
14/06:00pm 24.2 SE 14 21 1013.4 - 0.0 - Partly cloudy 10 - - - -
14/05:36pm 24.5 SE 13 19 1013.1 - 0.0 - Partly cloudy 10 - - - -
14/05:25pm 24.3 SE 15 20 1013.1 - 0.0 - Partly cloudy 10 - - - -
14/05:00pm 24.8 SE 15 19 1013.2 - 0.0 - Partly cloudy 10 - - - -
14/04:45pm 24.6 ESE 13 19 1013.2 - 0.0 - Partly cloudy 10 - - - -
14/04:00pm 25.3 SE 13 17 1012.0 - 0.0 - Cloudy 10 - - - -
14/03:27pm 25.2 SE 14 19 1013.4 - 0.0 - Partly cloudy 10 - - - -
14/03:10pm 25.9 ESE 14 21 1013.5 - 0.0 - Partly cloudy 10 - - - -
14/03:00pm 25.5 ESE 13 20 1013.7 - 0.0 - Partly cloudy 10 - - - -
14/02:48pm 25.7 ESE 15 21 1013.8 - 0.0 - Partly cloudy 10 - - - -
14/02:32pm 25.3 ESE 15 20 1014.0 - 0.0 - Partly cloudy 10 - - - -
14/02:14pm 25.3 ESE 15 23 1014.3 - 0.0 - Partly cloudy 10 - - - -
14/02:00pm 25.6 ESE 14 20 1014.5 - 0.0 - Partly cloudy 10 - - - -
14/01:57pm 25.7 ESE 15 22 1014.5 - 0.0 - Partly cloudy 10 - - - -
14/01:00pm 25.7 ESE 16 23 1013.9 - 0.0 - Cloudy 10 - - - -
14/12:00pm 25.8 ESE 15 21 1015.9 - 0.0 - Partly cloudy 10 - - - -
14/11:02am 25.4 ESE 16 21 1016.7 - 0.0 - Partly cloudy 10 - - - -
14/11:00am 25.5 ESE 16 21 1016.7 - 0.0 - Partly cloudy 10 - - - -
14/10:47am 25.2 ESE 16 22 1016.9 - 0.0 - Partly cloudy 10 - - - -
14/10:00am 25.3 ESE 15 21 1015.3 - 0.0 - Cloudy 10 - - - -
14/09:30am 25.1 ESE 15 20 1016.7 - 0.0 - Partly cloudy 10 - - - -
14/09:08am 24.2 ESE 14 19 1016.7 - 0.0 - Partly cloudy 10 - - - -
14/09:00am 24.4 ESE 14 19 1016.6 - 0.0 - Partly cloudy 10 - - - -
14/08:00am 23.5 ESE 13 17 1016.4 - 0.0 - Partly cloudy 10 - - - -
14/07:52am 23.4 ESE 13 18 1016.3 - 0.0 - Partly cloudy 10 - - - -
14/07:13am 23.1 ESE 11 16 1015.9 - 0.0 - Partly cloudy 10 - - - -
14/07:00am 23.0 ESE 10 15 1014.3 - 0.0 - Cloudy 10 - - - -

Other Formats:

Comma delimited format used in spreadsheet applications
http://www.bom.gov.au/fwo/IDW60701/IDW60701.96995.axf

JavaScript Object Notation format (JSON) in row-major order
http://www.bom.gov.au/fwo/IDW60701/IDW60701.96995.json